Terminal Aerodrome Forecast
Issued by NWS

Home | Current Version | Previous Version | Text Only | Print | Product List | Glossary On
Versions: 1 2 3 4 5 6 7 8 9 10 11 12
000
FTUS45 KRIW 272300
TAFLND
TAF
KLND 272328Z 2800/2824 VRB06KT P6SM VCSH SCT070 BKN100
     FM280700 VRB06KT P6SM SCT070
     FM281500 VRB06KT P6SM VCSH SCT050 BKN070
     FM282100 VRB12G20KT P6SM VCTS SCT040CB BKN070=

USA.gov is the U.S. government's official web portal to all federal, state and local government web resources and services.